sensor_id;sensor_type;location;lat;lon;timestamp;pressure;altitude;pressure_sealevel;temperature;humidity
53647;BME280;39550;52.230;5.194;2022-11-27T00:01:57;102324.66;;;6.57;85.22
53647;BME280;39550;52.230;5.194;2022-11-27T00:04:22;102316.69;;;6.51;85.18
53647;BME280;39550;52.230;5.194;2022-11-27T00:06:48;102315.22;;;6.56;85.56
53647;BME280;39550;52.230;5.194;2022-11-27T00:09:14;102299.41;;;6.46;85.37
53647;BME280;39550;52.230;5.194;2022-11-27T00:11:41;102307.41;;;6.53;85.12
53647;BME280;39550;52.230;5.194;2022-11-27T00:14:09;102303.22;;;6.55;84.68
53647;BME280;39550;52.230;5.194;2022-11-27T00:16:35;102300.59;;;6.53;85.06
53647;BME280;39550;52.230;5.194;2022-11-27T00:19:01;102302.34;;;6.54;85.09
53647;BME280;39550;52.230;5.194;2022-11-27T00:21:32;102303.22;;;6.55;84.94
53647;BME280;39550;52.230;5.194;2022-11-27T00:23:59;102288.69;;;6.54;85.45
53647;BME280;39550;52.230;5.194;2022-11-27T00:26:26;102286.13;;;6.54;85.16
53647;BME280;39550;52.230;5.194;2022-11-27T00:28:52;102270.44;;;6.47;84.93
53647;BME280;39550;52.230;5.194;2022-11-27T00:31:23;102278.44;;;6.54;84.63
53647;BME280;39550;52.230;5.194;2022-11-27T00:33:56;102280.81;;;6.51;85.42
53647;BME280;39550;52.230;5.194;2022-11-27T00:36:22;102291.06;;;6.51;85.53
53647;BME280;39550;52.230;5.194;2022-11-27T00:38:47;102287.56;;;6.48;85.44
53647;BME280;39550;52.230;5.194;2022-11-27T00:41:18;102278.19;;;6.49;84.52
53647;BME280;39550;52.230;5.194;2022-11-27T00:43:44;102276.53;;;6.50;84.71
53647;BME280;39550;52.230;5.194;2022-11-27T00:46:17;102276.47;;;6.48;84.82
53647;BME280;39550;52.230;5.194;2022-11-27T00:48:43;102274.75;;;6.48;85.09
53647;BME280;39550;52.230;5.194;2022-11-27T00:51:12;102266.94;;;6.45;84.44
53647;BME280;39550;52.230;5.194;2022-11-27T00:53:38;102276.47;;;6.48;85.27
53647;BME280;39550;52.230;5.194;2022-11-27T00:56:04;102267.09;;;6.48;84.86
53647;BME280;39550;52.230;5.194;2022-11-27T00:58:30;102271.41;;;6.50;85.28
53647;BME280;39550;52.230;5.194;2022-11-27T01:01:01;102257.72;;;6.49;84.61
53647;BME280;39550;52.230;5.194;2022-11-27T01:03:28;102263.66;;;6.48;84.47
53647;BME280;39550;52.230;5.194;2022-11-27T01:05:54;102258.53;;;6.48;84.85
53647;BME280;39550;52.230;5.194;2022-11-27T01:08:20;102269.66;;;6.48;84.78
53647;BME280;39550;52.230;5.194;2022-11-27T01:10:56;102247.91;;;6.40;85.11
53647;BME280;39550;52.230;5.194;2022-11-27T01:13:24;102249.94;;;6.47;84.81
53647;BME280;39550;52.230;5.194;2022-11-27T01:18:27;102248.34;;;6.50;84.70
53647;BME280;39550;52.230;5.194;2022-11-27T01:20:53;102244.84;;;6.47;84.29
53647;BME280;39550;52.230;5.194;2022-11-27T01:23:20;102232.03;;;6.47;84.93
53647;BME280;39550;52.230;5.194;2022-11-27T01:25:45;102241.47;;;6.48;84.18
53647;BME280;39550;52.230;5.194;2022-11-27T01:28:11;102234.59;;;6.47;85.12
53647;BME280;39550;52.230;5.194;2022-11-27T01:30:37;102224.34;;;6.47;84.87
53647;BME280;39550;52.230;5.194;2022-11-27T01:33:02;102225.16;;;6.46;85.19
53647;BME280;39550;52.230;5.194;2022-11-27T01:35:28;102220.84;;;6.45;84.27
53647;BME280;39550;52.230;5.194;2022-11-27T01:37:53;102207.22;;;6.46;85.13
53647;BME280;39550;52.230;5.194;2022-11-27T01:40:18;102201.22;;;6.46;84.58
53647;BME280;39550;52.230;5.194;2022-11-27T01:42:45;102197.75;;;6.44;84.53
53647;BME280;39550;52.230;5.194;2022-11-27T01:45:14;102198.59;;;6.44;84.91
53647;BME280;39550;52.230;5.194;2022-11-27T01:47:52;102189.16;;;6.43;84.56
53647;BME280;39550;52.230;5.194;2022-11-27T01:50:26;102185.72;;;6.43;84.61
53647;BME280;39550;52.230;5.194;2022-11-27T01:52:58;102179.72;;;6.42;84.70
53647;BME280;39550;52.230;5.194;2022-11-27T01:55:34;102171.09;;;6.40;84.67
53647;BME280;39550;52.230;5.194;2022-11-27T01:58:37;102165.25;;;6.43;84.70
53647;BME280;39550;52.230;5.194;2022-11-27T02:01:04;102159.22;;;6.42;84.77
53647;BME280;39550;52.230;5.194;2022-11-27T02:03:30;102161.72;;;6.41;84.54
53647;BME280;39550;52.230;5.194;2022-11-27T02:05:56;102173.66;;;6.40;84.35
53647;BME280;39550;52.230;5.194;2022-11-27T02:08:21;102162.44;;;6.38;84.64
53647;BME280;39550;52.230;5.194;2022-11-27T02:13:41;102143.72;;;6.39;84.74
53647;BME280;39550;52.230;5.194;2022-11-27T02:16:33;102142.88;;;6.39;84.05
53647;BME280;39550;52.230;5.194;2022-11-27T02:21:35;102138.53;;;6.38;84.15
53647;BME280;39550;52.230;5.194;2022-11-27T02:24:22;102137.75;;;6.39;84.25
53647;BME280;39550;52.230;5.194;2022-11-27T02:27:16;102140.38;;;6.40;84.92
53647;BME280;39550;52.230;5.194;2022-11-27T02:29:47;102138.63;;;6.39;84.40
53647;BME280;39550;52.230;5.194;2022-11-27T02:34:50;102148.84;;;6.39;84.35
53647;BME280;39550;52.230;5.194;2022-11-27T02:37:56;102159.91;;;6.38;84.86
53647;BME280;39550;52.230;5.194;2022-11-27T02:40:28;102160.72;;;6.37;85.03
53647;BME280;39550;52.230;5.194;2022-11-27T02:42:58;102161.53;;;6.36;84.08
53647;BME280;39550;52.230;5.194;2022-11-27T02:45:34;102155.59;;;6.37;84.38
53647;BME280;39550;52.230;5.194;2022-11-27T02:48:02;102149.59;;;6.37;84.67
53647;BME280;39550;52.230;5.194;2022-11-27T02:50:29;102150.47;;;6.37;84.63
53647;BME280;39550;52.230;5.194;2022-11-27T02:53:00;102141.84;;;6.35;84.58
53647;BME280;39550;52.230;5.194;2022-11-27T02:55:32;102142.81;;;6.37;84.73
53647;BME280;39550;52.230;5.194;2022-11-27T02:58:00;102141.84;;;6.35;84.41
53647;BME280;39550;52.230;5.194;2022-11-27T03:00:28;102143.59;;;6.36;84.95
53647;BME280;39550;52.230;5.194;2022-11-27T03:02:59;102141.91;;;6.37;84.11
53647;BME280;39550;52.230;5.194;2022-11-27T03:05:29;102135.00;;;6.34;84.51
53647;BME280;39550;52.230;5.194;2022-11-27T03:08:12;102137.63;;;6.36;83.79
53647;BME280;39550;52.230;5.194;2022-11-27T03:10:57;102140.97;;;6.35;83.80
53647;BME280;39550;52.230;5.194;2022-11-27T03:13:26;102141.91;;;6.37;84.11
53647;BME280;39550;52.230;5.194;2022-11-27T03:19:05;102133.34;;;6.36;84.47
53647;BME280;39550;52.230;5.194;2022-11-27T03:21:35;102134.16;;;6.35;83.89
53647;BME280;39550;52.230;5.194;2022-11-27T03:24:02;102124.88;;;6.37;84.17
53647;BME280;39550;52.230;5.194;2022-11-27T03:26:29;102133.34;;;6.36;84.67
53647;BME280;39550;52.230;5.194;2022-11-27T03:28:57;102124.75;;;6.34;84.92
53647;BME280;39550;52.230;5.194;2022-11-27T03:31:23;102125.53;;;6.33;84.79
53647;BME280;39550;52.230;5.194;2022-11-27T03:33:49;102119.63;;;6.34;84.29
53647;BME280;39550;52.230;5.194;2022-11-27T03:36:17;102111.03;;;6.34;84.21
53647;BME280;39550;52.230;5.194;2022-11-27T03:38:44;102120.44;;;6.33;84.15
53647;BME280;39550;52.230;5.194;2022-11-27T03:44:12;102100.75;;;6.32;83.58
53647;BME280;39550;52.230;5.194;2022-11-27T03:49:33;102095.63;;;6.32;84.75
53647;BME280;39550;52.230;5.194;2022-11-27T03:52:11;102115.25;;;6.32;84.07
53647;BME280;39550;52.230;5.194;2022-11-27T03:54:58;102101.53;;;6.31;83.59
53647;BME280;39550;52.230;5.194;2022-11-27T03:57:41;102104.09;;;6.31;84.60
53647;BME280;39550;52.230;5.194;2022-11-27T04:00:10;102097.25;;;6.30;84.26
53647;BME280;39550;52.230;5.194;2022-11-27T04:02:44;102098.97;;;6.31;84.11
53647;BME280;39550;52.230;5.194;2022-11-27T04:05:10;102109.94;;;6.28;84.06
53647;BME280;39550;52.230;5.194;2022-11-27T04:07:36;102100.59;;;6.29;84.39
53647;BME280;39550;52.230;5.194;2022-11-27T04:10:03;102115.16;;;6.30;83.86
53647;BME280;39550;52.230;5.194;2022-11-27T04:12:28;102109.09;;;6.28;84.43
53647;BME280;39550;52.230;5.194;2022-11-27T04:14:54;102111.78;;;6.31;83.66
53647;BME280;39550;52.230;5.194;2022-11-27T04:17:19;102115.16;;;6.30;84.05
53647;BME280;39550;52.230;5.194;2022-11-27T04:19:44;102110.06;;;6.30;83.70
53647;BME280;39550;52.230;5.194;2022-11-27T04:22:10;102115.16;;;6.30;83.64
53647;BME280;39550;52.230;5.194;2022-11-27T04:24:35;102109.09;;;6.28;83.73
53647;BME280;39550;52.230;5.194;2022-11-27T04:27:00;102110.06;;;6.30;84.59
53647;BME280;39550;52.230;5.194;2022-11-27T04:29:26;102105.72;;;6.29;83.82
53647;BME280;39550;52.230;5.194;2022-11-27T04:31:51;102091.97;;;6.27;83.91
53647;BME280;39550;52.230;5.194;2022-11-27T04:34:16;102082.69;;;6.29;84.26
53647;BME280;39550;52.230;5.194;2022-11-27T04:36:42;102073.13;;;6.25;84.41
53647;BME280;39550;52.230;5.194;2022-11-27T04:39:07;102077.44;;;6.26;84.00
53647;BME280;39550;52.230;5.194;2022-11-27T04:41:32;102071.34;;;6.24;83.77
53647;BME280;39550;52.230;5.194;2022-11-27T04:43:58;102078.38;;;6.28;84.25
53647;BME280;39550;52.230;5.194;2022-11-27T04:46:23;102076.53;;;6.25;83.79
53647;BME280;39550;52.230;5.194;2022-11-27T04:48:48;102081.78;;;6.28;83.38
53647;BME280;39550;52.230;5.194;2022-11-27T04:51:14;102074.94;;;6.27;83.94
53647;BME280;39550;52.230;5.194;2022-11-27T04:53:39;102066.38;;;6.27;83.89
53647;BME280;39550;52.230;5.194;2022-11-27T04:56:05;102067.19;;;6.26;84.34
53647;BME280;39550;52.230;5.194;2022-11-27T04:58:30;102050.00;;;6.23;84.17
53647;BME280;39550;52.230;5.194;2022-11-27T05:00:55;102052.56;;;6.23;84.19
53647;BME280;39550;52.230;5.194;2022-11-27T05:03:21;102055.13;;;6.23;84.03
53647;BME280;39550;52.230;5.194;2022-11-27T05:05:56;102054.25;;;6.23;84.08
53647;BME280;39550;52.230;5.194;2022-11-27T05:08:22;102053.31;;;6.21;84.43
53647;BME280;39550;52.230;5.194;2022-11-27T05:11:06;102042.41;;;6.25;83.98
53647;BME280;39550;52.230;5.194;2022-11-27T05:13:32;102047.53;;;6.25;84.42
53647;BME280;39550;52.230;5.194;2022-11-27T05:15:57;102024.84;;;6.14;83.77
53647;BME280;39550;52.230;5.194;2022-11-27T05:18:23;102039.84;;;6.25;83.67
53647;BME280;39550;52.230;5.194;2022-11-27T05:21:05;102039.78;;;6.23;84.20
53647;BME280;39550;52.230;5.194;2022-11-27T05:23:32;102037.88;;;6.19;83.44
53647;BME280;39550;52.230;5.194;2022-11-27T05:25:58;102036.25;;;6.21;84.04
53647;BME280;39550;52.230;5.194;2022-11-27T05:28:24;102038.88;;;6.23;84.25
53647;BME280;39550;52.230;5.194;2022-11-27T05:30:49;102035.38;;;6.21;83.13
53647;BME280;39550;52.230;5.194;2022-11-27T05:33:16;102024.19;;;6.19;83.47
53647;BME280;39550;52.230;5.194;2022-11-27T05:35:42;102028.63;;;6.23;83.65
53647;BME280;39550;52.230;5.194;2022-11-27T05:38:07;102034.59;;;6.22;83.41
53647;BME280;39550;52.230;5.194;2022-11-27T05:40:33;102026.00;;;6.21;83.61
53647;BME280;39550;52.230;5.194;2022-11-27T05:42:58;102024.25;;;6.20;84.06
53647;BME280;39550;52.230;5.194;2022-11-27T05:45:24;102023.38;;;6.20;83.05
53647;BME280;39550;52.230;5.194;2022-11-27T05:47:51;102022.53;;;6.19;83.67
53647;BME280;39550;52.230;5.194;2022-11-27T05:50:16;102025.28;;;6.24;83.65
53647;BME280;39550;52.230;5.194;2022-11-27T05:52:41;102026.97;;;6.23;83.59
53647;BME280;39550;52.230;5.194;2022-11-27T05:55:07;102015.84;;;6.23;83.98
53647;BME280;39550;52.230;5.194;2022-11-27T05:57:33;102013.16;;;6.20;83.15
53647;BME280;39550;52.230;5.194;2022-11-27T05:59:58;102022.59;;;6.21;83.64
53647;BME280;39550;52.230;5.194;2022-11-27T06:02:24;102014.84;;;6.19;83.53
53647;BME280;39550;52.230;5.194;2022-11-27T06:04:50;102008.91;;;6.20;83.86
53647;BME280;39550;52.230;5.194;2022-11-27T06:07:16;102012.28;;;6.19;83.76
53647;BME280;39550;52.230;5.194;2022-11-27T06:09:41;102010.53;;;6.18;84.03
53647;BME280;39550;52.230;5.194;2022-11-27T06:12:06;102011.41;;;6.19;83.64
53647;BME280;39550;52.230;5.194;2022-11-27T06:14:32;102008.03;;;6.20;83.99
53647;BME280;39550;52.230;5.194;2022-11-27T06:16:59;102008.84;;;6.19;83.23
53647;BME280;39550;52.230;5.194;2022-11-27T06:19:25;102008.84;;;6.19;83.35
53647;BME280;39550;52.230;5.194;2022-11-27T06:21:50;101997.72;;;6.18;83.47
53647;BME280;39550;52.230;5.194;2022-11-27T06:24:15;101999.44;;;6.18;83.32
53647;BME280;39550;52.230;5.194;2022-11-27T06:26:41;101996.03;;;6.19;83.08
53647;BME280;39550;52.230;5.194;2022-11-27T06:29:07;101995.31;;;6.21;83.54
53647;BME280;39550;52.230;5.194;2022-11-27T06:31:33;101988.53;;;6.22;83.89
53647;BME280;39550;52.230;5.194;2022-11-27T06:33:59;101992.69;;;6.20;83.70
53647;BME280;39550;52.230;5.194;2022-11-27T06:36:43;101994.44;;;6.21;83.56
53647;BME280;39550;52.230;5.194;2022-11-27T06:39:09;101996.03;;;6.19;83.19
53647;BME280;39550;52.230;5.194;2022-11-27T06:41:35;101986.69;;;6.19;83.41
53647;BME280;39550;52.230;5.194;2022-11-27T06:44:01;101994.44;;;6.21;83.41
53647;BME280;39550;52.230;5.194;2022-11-27T06:46:27;101984.19;;;6.21;84.19
53647;BME280;39550;52.230;5.194;2022-11-27T06:48:53;101979.81;;;6.18;83.63
53647;BME280;39550;52.230;5.194;2022-11-27T06:51:21;101975.56;;;6.19;83.22
53647;BME280;39550;52.230;5.194;2022-11-27T06:53:48;101982.44;;;6.20;84.08
53647;BME280;39550;52.230;5.194;2022-11-27T06:56:17;101977.19;;;6.17;83.26
53647;BME280;39550;52.230;5.194;2022-11-27T06:58:43;101978.13;;;6.19;83.42
53647;BME280;39550;52.230;5.194;2022-11-27T07:01:11;101972.06;;;6.17;83.26
53647;BME280;39550;52.230;5.194;2022-11-27T07:03:37;101959.34;;;6.18;83.99
53647;BME280;39550;52.230;5.194;2022-11-27T07:06:05;101949.84;;;6.16;83.93
53647;BME280;39550;52.230;5.194;2022-11-27T07:08:31;101959.34;;;6.18;83.35
53647;BME280;39550;52.230;5.194;2022-11-27T07:11:14;101949.84;;;6.16;83.63
53647;BME280;39550;52.230;5.194;2022-11-27T07:13:43;101943.19;;;6.19;83.65
53647;BME280;39550;52.230;5.194;2022-11-27T07:16:10;101936.38;;;6.20;83.91
53647;BME280;39550;52.230;5.194;2022-11-27T07:18:38;101943.13;;;6.18;83.49
53647;BME280;39550;52.230;5.194;2022-11-27T07:21:04;101929.38;;;6.16;83.20
53647;BME280;39550;52.230;5.194;2022-11-27T07:23:30;101927.75;;;6.18;83.72
53647;BME280;39550;52.230;5.194;2022-11-27T07:25:55;101925.19;;;6.18;83.11
53647;BME280;39550;52.230;5.194;2022-11-27T07:28:21;101927.75;;;6.18;83.75
53647;BME280;39550;52.230;5.194;2022-11-27T07:30:56;101922.66;;;6.18;83.91
53647;BME280;39550;52.230;5.194;2022-11-27T07:33:23;101917.53;;;6.18;83.50
53647;BME280;39550;52.230;5.194;2022-11-27T07:35:49;101916.63;;;6.17;83.24
53647;BME280;39550;52.230;5.194;2022-11-27T07:38:14;101918.38;;;6.18;83.17
53647;BME280;39550;52.230;5.194;2022-11-27T07:40:40;101926.81;;;6.16;83.67
53647;BME280;39550;52.230;5.194;2022-11-27T07:43:05;101927.75;;;6.18;83.70
53647;BME280;39550;52.230;5.194;2022-11-27T07:45:30;101916.56;;;6.16;83.38
53647;BME280;39550;52.230;5.194;2022-11-27T07:47:56;101930.31;;;6.18;84.18
53647;BME280;39550;52.230;5.194;2022-11-27T07:50:21;101920.09;;;6.18;83.26
53647;BME280;39550;52.230;5.194;2022-11-27T07:52:46;101919.19;;;6.17;84.09
53647;BME280;39550;52.230;5.194;2022-11-27T07:55:12;101920.09;;;6.18;84.21
53647;BME280;39550;52.230;5.194;2022-11-27T07:57:38;101914.06;;;6.17;84.32
53647;BME280;39550;52.230;5.194;2022-11-27T08:00:04;101914.81;;;6.14;83.82
53647;BME280;39550;52.230;5.194;2022-11-27T08:02:30;101917.38;;;6.14;84.09
53647;BME280;39550;52.230;5.194;2022-11-27T08:04:55;101911.44;;;6.16;83.48
53647;BME280;39550;52.230;5.194;2022-11-27T08:07:28;101907.28;;;6.18;83.86
53647;BME280;39550;52.230;5.194;2022-11-27T08:09:55;101906.34;;;6.16;84.07
53647;BME280;39550;52.230;5.194;2022-11-27T08:12:24;101902.16;;;6.18;84.13
53647;BME280;39550;52.230;5.194;2022-11-27T08:14:49;101897.06;;;6.18;83.43
53647;BME280;39550;52.230;5.194;2022-11-27T08:17:15;101885.97;;;6.19;83.80
53647;BME280;39550;52.230;5.194;2022-11-27T08:19:40;101886.81;;;6.18;84.03
53647;BME280;39550;52.230;5.194;2022-11-27T08:22:11;101890.31;;;6.20;83.27
53647;BME280;39550;52.230;5.194;2022-11-27T08:24:37;101893.66;;;6.19;83.14
53647;BME280;39550;52.230;5.194;2022-11-27T08:27:03;101886.81;;;6.18;83.25
53647;BME280;39550;52.230;5.194;2022-11-27T08:29:28;101900.41;;;6.17;84.08
53647;BME280;39550;52.230;5.194;2022-11-27T08:31:53;101884.09;;;6.14;83.86
53647;BME280;39550;52.230;5.194;2022-11-27T08:34:19;101896.16;;;6.17;83.81
53647;BME280;39550;52.230;5.194;2022-11-27T08:36:44;101893.53;;;6.16;83.96
53647;BME280;39550;52.230;5.194;2022-11-27T08:39:09;101895.34;;;6.18;84.20
53647;BME280;39550;52.230;5.194;2022-11-27T08:41:36;101903.91;;;6.19;83.48
53647;BME280;39550;52.230;5.194;2022-11-27T08:44:01;101893.66;;;6.19;83.58
53647;BME280;39550;52.230;5.194;2022-11-27T08:46:26;101900.41;;;6.17;84.03
53647;BME280;39550;52.230;5.194;2022-11-27T08:48:52;101896.97;;;6.16;83.32
53647;BME280;39550;52.230;5.194;2022-11-27T08:51:17;101893.66;;;6.19;84.28
53647;BME280;39550;52.230;5.194;2022-11-27T08:53:43;101906.47;;;6.19;83.55
53647;BME280;39550;52.230;5.194;2022-11-27T08:56:18;101905.66;;;6.20;83.31
53647;BME280;39550;52.230;5.194;2022-11-27T08:58:44;101904.06;;;6.22;83.24
53647;BME280;39550;52.230;5.194;2022-11-27T09:01:18;101906.69;;;6.23;84.20
53647;BME280;39550;52.230;5.194;2022-11-27T09:03:45;101904.97;;;6.24;83.53
53647;BME280;39550;52.230;5.194;2022-11-27T09:06:13;101909.22;;;6.23;83.73
53647;BME280;39550;52.230;5.194;2022-11-27T09:08:40;101904.06;;;6.22;84.06
53647;BME280;39550;52.230;5.194;2022-11-27T09:11:06;101904.06;;;6.22;84.23
53647;BME280;39550;52.230;5.194;2022-11-27T09:13:32;101894.75;;;6.24;83.17
53647;BME280;39550;52.230;5.194;2022-11-27T09:16:01;101900.66;;;6.23;83.75
53647;BME280;39550;52.230;5.194;2022-11-27T09:18:26;101900.81;;;6.26;83.45
53647;BME280;39550;52.230;5.194;2022-11-27T09:21:03;101888.81;;;6.25;83.65
53647;BME280;39550;52.230;5.194;2022-11-27T09:23:29;101893.13;;;6.26;82.96
53647;BME280;39550;52.230;5.194;2022-11-27T09:26:02;101882.81;;;6.24;84.12
53647;BME280;39550;52.230;5.194;2022-11-27T09:28:28;101887.19;;;6.27;83.31
53647;BME280;39550;52.230;5.194;2022-11-27T09:30:58;101883.03;;;6.29;83.43
53647;BME280;39550;52.230;5.194;2022-11-27T09:33:25;101879.91;;;6.36;83.21
53647;BME280;39550;52.230;5.194;2022-11-27T09:35:50;101881.09;;;6.44;82.65
53647;BME280;39550;52.230;5.194;2022-11-27T09:38:16;101881.72;;;6.60;82.94
53647;BME280;39550;52.230;5.194;2022-11-27T09:41:00;101863.97;;;6.64;83.28
53647;BME280;39550;52.230;5.194;2022-11-27T09:43:29;101870.09;;;6.68;82.38
53647;BME280;39550;52.230;5.194;2022-11-27T09:45:58;101865.03;;;6.70;83.05
53647;BME280;39550;52.230;5.194;2022-11-27T09:48:33;101866.78;;;6.71;82.90
53647;BME280;39550;52.230;5.194;2022-11-27T09:51:04;101861.63;;;6.69;82.49
53647;BME280;39550;52.230;5.194;2022-11-27T09:56:35;101856.59;;;6.72;82.15
53647;BME280;39550;52.230;5.194;2022-11-27T09:59:01;101848.88;;;6.71;82.28
53647;BME280;39550;52.230;5.194;2022-11-27T10:01:32;101843.91;;;6.75;82.40
53647;BME280;39550;52.230;5.194;2022-11-27T10:26:46;101808.06;;;6.75;82.66
53647;BME280;39550;52.230;5.194;2022-11-27T10:29:33;101829.84;;;6.87;82.40
53647;BME280;39550;52.230;5.194;2022-11-27T10:32:14;101795.72;;;6.65;82.84
53647;BME280;39550;52.230;5.194;2022-11-27T10:34:53;101822.03;;;6.84;82.59
53647;BME280;39550;52.230;5.194;2022-11-27T10:37:27;101751.59;;;6.50;82.31
53647;BME280;39550;52.230;5.194;2022-11-27T10:40:02;101817.88;;;6.86;82.54
53647;BME280;39550;52.230;5.194;2022-11-27T10:43:06;101807.72;;;6.89;82.34
53647;BME280;39550;52.230;5.194;2022-11-27T10:48:07;101757.66;;;6.74;82.33
53647;BME280;39550;52.230;5.194;2022-11-27T10:50:33;101778.94;;;6.96;83.00
53647;BME280;39550;52.230;5.194;2022-11-27T10:53:07;101738.78;;;6.72;82.61
53647;BME280;39550;52.230;5.194;2022-11-27T10:56:04;101759.84;;;6.88;82.41
53647;BME280;39550;52.230;5.194;2022-11-27T10:58:56;101747.41;;;6.74;82.69
53647;BME280;39550;52.230;5.194;2022-11-27T11:01:24;101790.09;;;6.96;82.00
53647;BME280;39550;52.230;5.194;2022-11-27T11:03:50;101765.56;;;6.80;82.69
53647;BME280;39550;52.230;5.194;2022-11-27T11:06:21;101776.97;;;6.89;82.80
53647;BME280;39550;52.230;5.194;2022-11-27T11:08:48;101731.69;;;6.65;82.84
53647;BME280;39550;52.230;5.194;2022-11-27T11:11:27;101701.97;;;6.47;82.47
53647;BME280;39550;52.230;5.194;2022-11-27T11:13:53;101734.13;;;6.62;82.41
53647;BME280;39550;52.230;5.194;2022-11-27T11:16:27;101745.00;;;6.79;82.23
53647;BME280;39550;52.230;5.194;2022-11-27T11:18:55;101757.94;;;6.82;83.17
53647;BME280;39550;52.230;5.194;2022-11-27T11:21:33;101709.38;;;6.62;83.10
53647;BME280;39550;52.230;5.194;2022-11-27T11:24:04;101718.13;;;6.68;83.25
53647;BME280;39550;52.230;5.194;2022-11-27T11:26:35;101742.63;;;6.84;82.74
53647;BME280;39550;52.230;5.194;2022-11-27T11:29:04;101687.84;;;6.57;83.06
53647;BME280;39550;52.230;5.194;2022-11-27T11:31:38;101719.66;;;6.87;82.71
53647;BME280;39550;52.230;5.194;2022-11-27T11:34:20;101694.53;;;6.76;82.53
53647;BME280;39550;52.230;5.194;2022-11-27T11:36:59;101703.59;;;6.91;82.73
53647;BME280;39550;52.230;5.194;2022-11-27T11:39:28;101705.34;;;6.92;82.82
53647;BME280;39550;52.230;5.194;2022-11-27T11:41:55;101680.91;;;6.77;82.84
53647;BME280;39550;52.230;5.194;2022-11-27T11:44:23;101711.41;;;6.94;82.65
53647;BME280;39550;52.230;5.194;2022-11-27T11:46:52;101651.34;;;6.63;82.44
53647;BME280;39550;52.230;5.194;2022-11-27T11:49:24;101694.00;;;6.85;82.07
53647;BME280;39550;52.230;5.194;2022-11-27T11:54:37;101708.66;;;6.89;83.16
53647;BME280;39550;52.230;5.194;2022-11-27T12:02:38;101693.22;;;6.88;83.36
53647;BME280;39550;52.230;5.194;2022-11-27T12:13:15;101674.50;;;6.89;83.29
53647;BME280;39550;52.230;5.194;2022-11-27T12:15:58;101632.94;;;6.73;82.66
53647;BME280;39550;52.230;5.194;2022-11-27T12:21:37;101654.09;;;6.92;82.21
53647;BME280;39550;52.230;5.194;2022-11-27T12:24:34;101606.28;;;6.68;82.81
53647;BME280;39550;52.230;5.194;2022-11-27T12:30:38;101575.44;;;6.65;82.83
53647;BME280;39550;52.230;5.194;2022-11-27T12:33:20;101595.34;;;6.72;82.96
53647;BME280;39550;52.230;5.194;2022-11-27T12:36:26;101621.59;;;6.91;82.52
53647;BME280;39550;52.230;5.194;2022-11-27T12:39:24;101619.03;;;6.91;82.45
53647;BME280;39550;52.230;5.194;2022-11-27T12:42:05;101608.88;;;6.92;82.25
53647;BME280;39550;52.230;5.194;2022-11-27T12:47:07;101600.28;;;6.92;82.98
53647;BME280;39550;52.230;5.194;2022-11-27T12:49:45;101595.16;;;6.92;82.73
53647;BME280;39550;52.230;5.194;2022-11-27T12:52:21;101555.16;;;6.71;82.61
53647;BME280;39550;52.230;5.194;2022-11-27T12:55:13;101573.63;;;6.87;82.76
53647;BME280;39550;52.230;5.194;2022-11-27T12:57:47;101540.41;;;6.64;82.86
53647;BME280;39550;52.230;5.194;2022-11-27T13:00:19;101574.66;;;6.92;83.15
53647;BME280;39550;52.230;5.194;2022-11-27T13:05:21;101573.00;;;6.92;83.06
53647;BME280;39550;52.230;5.194;2022-11-27T13:10:54;101570.34;;;6.91;83.23
53647;BME280;39550;52.230;5.194;2022-11-27T13:13:24;101561.63;;;6.84;82.80
53647;BME280;39550;52.230;5.194;2022-11-27T13:16:25;101531.63;;;6.81;82.29
53647;BME280;39550;52.230;5.194;2022-11-27T13:21:52;101565.06;;;7.10;82.87
53647;BME280;39550;52.230;5.194;2022-11-27T13:24:22;101489.00;;;6.58;82.41
53647;BME280;39550;52.230;5.194;2022-11-27T13:27:16;101529.16;;;6.85;82.52
53647;BME280;39550;52.230;5.194;2022-11-27T13:29:59;101567.72;;;7.13;82.85
53647;BME280;39550;52.230;5.194;2022-11-27T13:32:32;101513.75;;;6.83;82.71
53647;BME280;39550;52.230;5.194;2022-11-27T13:35:07;101550.69;;;7.15;82.50
53647;BME280;39550;52.230;5.194;2022-11-27T13:37:42;101557.63;;;7.18;82.12
53647;BME280;39550;52.230;5.194;2022-11-27T13:40:19;101521.19;;;7.01;82.14
53647;BME280;39550;52.230;5.194;2022-11-27T13:42:51;101546.56;;;7.19;82.55
53647;BME280;39550;52.230;5.194;2022-11-27T13:45:25;101455.19;;;6.68;81.88
53647;BME280;39550;52.230;5.194;2022-11-27T13:47:53;101508.56;;;7.07;81.76
53647;BME280;39550;52.230;5.194;2022-11-27T13:50:21;101488.69;;;7.00;81.55
53647;BME280;39550;52.230;5.194;2022-11-27T13:55:32;101442.81;;;6.82;81.59
53647;BME280;39550;52.230;5.194;2022-11-27T13:58:12;101522.91;;;7.28;82.65
53647;BME280;39550;52.230;5.194;2022-11-27T14:00:56;101521.16;;;7.27;82.27
53647;BME280;39550;52.230;5.194;2022-11-27T14:03:29;101436.84;;;6.81;82.36
53647;BME280;39550;52.230;5.194;2022-11-27T14:05:55;101505.03;;;7.31;82.78
53647;BME280;39550;52.230;5.194;2022-11-27T14:08:29;101453.03;;;7.06;81.89
53647;BME280;39550;52.230;5.194;2022-11-27T14:11:08;101420.13;;;6.93;81.97
53647;BME280;39550;52.230;5.194;2022-11-27T14:13:45;101476.53;;;7.20;82.37
53647;BME280;39550;52.230;5.194;2022-11-27T14:18:50;101459.50;;;7.22;82.05
53647;BME280;39550;52.230;5.194;2022-11-27T14:27:21;101454.50;;;7.27;82.27
53647;BME280;39550;52.230;5.194;2022-11-27T14:29:51;101450.22;;;7.26;82.79
53647;BME280;39550;52.230;5.194;2022-11-27T14:32:22;101381.56;;;6.88;82.16
53647;BME280;39550;52.230;5.194;2022-11-27T14:35:21;101405.22;;;7.08;82.85
53647;BME280;39550;52.230;5.194;2022-11-27T14:37:50;101446.25;;;7.36;82.19
53647;BME280;39550;52.230;5.194;2022-11-27T14:40:26;101454.94;;;7.41;82.83
53647;BME280;39550;52.230;5.194;2022-11-27T14:45:49;101438.50;;;7.34;83.05
53647;BME280;39550;52.230;5.194;2022-11-27T14:48:23;101391.78;;;7.15;82.74
53647;BME280;39550;52.230;5.194;2022-11-27T14:50:52;101434.44;;;7.41;82.75
53647;BME280;39550;52.230;5.194;2022-11-27T14:53:26;101369.28;;;7.05;82.32